Time;durP1;ratioP1;P1;durP2;ratioP2;P2;SDS_P1;SDS_P2;PMS_P1;PMS_P2;Temp;Humidity;BMP_temperature;BMP_pressure;BME280_temperature;BME280_humidity;BME280_pressure;Samples;Min_cycle;Max_cycle;Signal;HPM_P1;HPM_P2
2022/04/19 00:01:10;;;;;;;10.40;5.83;;;;;;;;;;1727401;83;25660;-71
2022/04/19 00:03:37;;;;;;;6.28;4.30;;;;;;;;;;1727045;83;26234;-70
2022/04/19 00:06:04;;;;;;;7.05;4.05;;;;;;;;;;1727355;83;25594;-70
2022/04/19 00:08:30;;;;;;;7.53;4.00;;;;;;;;;;1726704;82;27390;-71
2022/04/19 00:10:56;;;;;;;5.65;3.67;;;;;;;;;;1726528;83;25759;-71
2022/04/19 00:13:22;;;;;;;6.75;3.83;;;;;;;;;;1726469;83;25672;-71
2022/04/19 00:15:48;;;;;;;7.55;3.70;;;;;;;;;;1727192;83;35033;-71
2022/04/19 00:18:15;;;;;;;10.25;3.50;;;;;;;;;;1735243;82;32471;-71
2022/04/19 00:20:45;;;;;;;6.95;3.62;;;;;;;;;;1724731;83;28127;-71
2022/04/19 00:23:13;;;;;;;5.20;4.05;;;;;;;;;;1714340;82;25738;-70
2022/04/19 00:25:40;;;;;;;4.75;3.40;;;;;;;;;;1709540;83;25339;-72
2022/04/19 00:28:07;;;;;;;5.12;3.72;;;;;;;;;;1709504;83;26178;-71
2022/04/19 00:30:33;;;;;;;4.62;3.33;;;;;;;;;;1736599;82;25697;-72
2022/04/19 00:32:58;;;;;;;9.48;3.72;;;;;;;;;;1729214;82;28120;-72
2022/04/19 00:35:26;;;;;;;6.10;3.85;;;;;;;;;;1733286;82;33093;-72
2022/04/19 00:37:52;;;;;;;5.72;3.47;;;;;;;;;;1733586;82;25626;-73
2022/04/19 00:40:18;;;;;;;5.97;3.40;;;;;;;;;;1733263;82;35423;-72
2022/04/19 00:42:44;;;;;;;7.55;3.62;;;;;;;;;;1716283;82;32293;-72
2022/04/19 00:45:10;;;;;;;6.65;3.40;;;;;;;;;;1716173;83;27240;-72
2022/04/19 00:47:38;;;;;;;9.00;5.72;;;;;;;;;;1727752;82;25639;-72
2022/04/19 00:50:05;;;;;;;8.33;4.50;;;;;;;;;;1731494;82;25674;-72
2022/04/19 00:52:33;;;;;;;8.78;5.15;;;;;;;;;;1727082;83;26311;-73
2022/04/19 00:55:00;;;;;;;5.78;3.77;;;;;;;;;;1727797;82;25510;-76
2022/04/19 00:57:26;;;;;;;6.28;4.22;;;;;;;;;;1727747;82;28041;-76
2022/04/19 00:59:56;;;;;;;6.60;4.58;;;;;;;;;;1728175;83;25446;-75
2022/04/19 01:02:23;;;;;;;5.65;4.05;;;;;;;;;;1728265;82;25572;-75
2022/04/19 01:04:50;;;;;;;6.20;4.28;;;;;;;;;;1728222;82;25611;-75
2022/04/19 01:07:18;;;;;;;7.83;4.12;;;;;;;;;;1728257;83;25495;-75
2022/04/19 01:09:45;;;;;;;7.08;4.47;;;;;;;;;;1727948;82;27258;-76
2022/04/19 01:14:57;;;;;;;7.22;4.47;;;;;;;;;;1728283;82;25548;-75
2022/04/19 01:17:25;;;;;;;8.65;4.80;;;;;;;;;;1728251;82;25803;-75
2022/04/19 01:19:51;;;;;;;7.90;5.03;;;;;;;;;;1728435;82;25579;-75
2022/04/19 01:22:17;;;;;;;7.10;4.85;;;;;;;;;;1728347;83;27882;-75
2022/04/19 01:24:45;;;;;;;10.13;5.35;;;;;;;;;;1728630;83;33167;-76
2022/04/19 01:27:13;;;;;;;6.25;4.22;;;;;;;;;;1728273;82;25418;-76
2022/04/19 01:29:40;;;;;;;10.15;4.95;;;;;;;;;;1728224;83;25627;-76
2022/04/19 01:32:07;;;;;;;4.72;3.83;;;;;;;;;;1730849;82;25589;-75
2022/04/19 01:34:34;;;;;;;7.47;5.47;;;;;;;;;;1773415;80;27526;-75
2022/04/19 01:37:00;;;;;;;8.43;5.05;;;;;;;;;;1773292;80;25387;-75
2022/04/19 01:42:10;;;;;;;8.85;5.05;;;;;;;;;;1773305;80;26303;-75
2022/04/19 01:44:38;;;;;;;8.53;4.70;;;;;;;;;;1773584;80;25401;-75
2022/04/19 01:47:07;;;;;;;9.43;4.97;;;;;;;;;;1773309;80;27380;-74
2022/04/19 01:49:32;;;;;;;7.62;5.17;;;;;;;;;;1773330;80;25489;-73
2022/04/19 01:51:58;;;;;;;8.53;5.78;;;;;;;;;;1773306;80;29576;-73
2022/04/19 01:54:24;;;;;;;8.40;5.40;;;;;;;;;;1773250;80;34809;-73
2022/04/19 01:56:50;;;;;;;8.88;5.22;;;;;;;;;;1773438;80;32141;-71
2022/04/19 01:59:16;;;;;;;7.47;5.08;;;;;;;;;;1773299;80;27396;-70
2022/04/19 02:01:42;;;;;;;7.92;5.47;;;;;;;;;;1773210;80;25635;-70
2022/04/19 02:04:09;;;;;;;9.03;6.10;;;;;;;;;;1773222;80;25389;-72
2022/04/19 02:06:34;;;;;;;10.03;6.50;;;;;;;;;;1773193;80;35199;-71
2022/04/19 02:09:03;;;;;;;12.45;6.22;;;;;;;;;;1773293;80;32665;-70
2022/04/19 02:11:28;;;;;;;8.13;5.58;;;;;;;;;;1773270;80;28066;-70
2022/04/19 02:13:54;;;;;;;9.73;6.35;;;;;;;;;;1773182;80;25755;-70
2022/04/19 02:16:21;;;;;;;8.55;6.45;;;;;;;;;;1773258;80;29563;-69
2022/04/19 02:18:48;;;;;;;9.35;6.92;;;;;;;;;;1773209;80;26237;-68
2022/04/19 02:21:14;;;;;;;11.93;7.50;;;;;;;;;;1773308;80;25405;-68
2022/04/19 02:23:43;;;;;;;10.08;7.30;;;;;;;;;;1773384;80;28103;-72
2022/04/19 02:26:08;;;;;;;10.85;7.90;;;;;;;;;;1773165;80;25558;-70
2022/04/19 02:28:34;;;;;;;13.98;8.18;;;;;;;;;;1773265;80;30032;-70
2022/04/19 02:31:00;;;;;;;10.35;7.67;;;;;;;;;;1773231;80;26288;-70
2022/04/19 02:33:26;;;;;;;13.88;8.33;;;;;;;;;;1765663;80;32298;-70
2022/04/19 02:35:55;;;;;;;11.60;8.00;;;;;;;;;;1762655;80;28155;-70
2022/04/19 02:38:22;;;;;;;11.03;7.28;;;;;;;;;;1762558;80;25413;-70
2022/04/19 02:40:48;;;;;;;9.78;7.33;;;;;;;;;;1762634;81;25532;-70
2022/04/19 02:43:14;;;;;;;9.68;7.05;;;;;;;;;;1762609;81;34780;-70
2022/04/19 02:45:40;;;;;;;11.33;7.72;;;;;;;;;;1762721;81;25468;-70
2022/04/19 02:48:08;;;;;;;8.48;6.72;;;;;;;;;;1762639;81;27411;-70
2022/04/19 02:50:45;;;;;;;9.95;7.50;;;;;;;;;;1762579;80;25793;-70
2022/04/19 02:53:11;;;;;;;9.75;7.12;;;;;;;;;;1762740;81;25537;-71
2022/04/19 02:55:37;;;;;;;12.00;7.78;;;;;;;;;;1762622;80;25682;-70
2022/04/19 02:58:03;;;;;;;9.33;6.37;;;;;;;;;;1762679;81;25620;-70
2022/04/19 03:00:30;;;;;;;9.30;7.03;;;;;;;;;;1762636;81;28349;-70
2022/04/19 03:02:55;;;;;;;9.45;7.33;;;;;;;;;;1762575;81;25547;-70
2022/04/19 03:05:21;;;;;;;10.48;7.37;;;;;;;;;;1762619;80;29543;-70
2022/04/19 03:07:48;;;;;;;9.50;6.87;;;;;;;;;;1762616;80;25714;-70
2022/04/19 03:10:16;;;;;;;10.25;7.12;;;;;;;;;;1762699;80;25636;-71
2022/04/19 03:12:45;;;;;;;10.55;7.12;;;;;;;;;;1762652;81;27375;-70
2022/04/19 03:15:12;;;;;;;10.32;7.58;;;;;;;;;;1762673;81;25753;-70
2022/04/19 03:17:40;;;;;;;9.18;6.28;;;;;;;;;;1762630;80;25529;-70
2022/04/19 03:20:11;;;;;;;7.75;6.28;;;;;;;;;;1762591;81;25655;-70
2022/04/19 03:28:13;;;;;;;10.98;7.42;;;;;;;;;;1762574;81;25544;-70
2022/04/19 03:30:39;;;;;;;10.68;7.10;;;;;;;;;;1762711;80;25402;-71
2022/04/19 03:33:05;;;;;;;10.68;7.22;;;;;;;;;;1763483;81;25667;-71
2022/04/19 03:35:31;;;;;;;12.37;7.37;;;;;;;;;;1765173;81;25408;-71
2022/04/19 03:37:57;;;;;;;10.30;7.47;;;;;;;;;;1765141;81;27345;-71
2022/04/19 03:40:25;;;;;;;11.55;7.75;;;;;;;;;;1765038;81;25534;-71
2022/04/19 03:42:53;;;;;;;12.78;8.05;;;;;;;;;;1765071;81;25603;-71
2022/04/19 03:45:19;;;;;;;8.93;7.00;;;;;;;;;;1764877;81;25673;-71
2022/04/19 03:47:44;;;;;;;10.55;7.17;;;;;;;;;;1765081;81;32301;-71
2022/04/19 03:50:10;;;;;;;11.28;7.62;;;;;;;;;;1765173;81;28120;-71
2022/04/19 03:52:36;;;;;;;9.20;7.47;;;;;;;;;;1765114;81;33119;-71
2022/04/19 03:55:02;;;;;;;10.50;7.50;;;;;;;;;;1765176;81;29958;-71
2022/04/19 03:57:28;;;;;;;9.20;7.40;;;;;;;;;;1765193;81;25639;-71
2022/04/19 03:59:54;;;;;;;12.20;8.13;;;;;;;;;;1765230;81;32399;-71
2022/04/19 04:02:20;;;;;;;9.80;8.08;;;;;;;;;;1765191;81;27423;-71
2022/04/19 04:04:46;;;;;;;13.95;10.23;;;;;;;;;;1765087;81;33185;-70
2022/04/19 04:07:13;;;;;;;14.53;10.23;;;;;;;;;;1765196;81;29605;-69
2022/04/19 04:09:39;;;;;;;13.95;8.88;;;;;;;;;;1765127;81;25749;-69
2022/04/19 04:12:15;;;;;;;11.63;8.25;;;;;;;;;;1765220;81;32646;-69
2022/04/19 04:14:43;;;;;;;14.93;8.73;;;;;;;;;;1765230;81;27393;-69
2022/04/19 04:17:10;;;;;;;11.83;7.58;;;;;;;;;;1765092;81;25640;-69
2022/04/19 04:19:36;;;;;;;11.68;7.47;;;;;;;;;;1765174;81;25615;-68
2022/04/19 04:22:04;;;;;;;10.43;7.03;;;;;;;;;;1765139;81;26446;-69
2022/04/19 04:24:30;;;;;;;10.15;7.25;;;;;;;;;;1765158;81;25484;-69
2022/04/19 04:26:56;;;;;;;9.10;6.87;;;;;;;;;;1765179;81;28101;-69
2022/04/19 04:29:22;;;;;;;11.43;7.53;;;;;;;;;;1765103;81;33025;-70
2022/04/19 04:31:48;;;;;;;8.68;7.17;;;;;;;;;;1765196;81;29950;-70
2022/04/19 04:34:14;;;;;;;8.10;5.92;;;;;;;;;;1763228;81;34747;-71
2022/04/19 04:36:40;;;;;;;7.53;6.08;;;;;;;;;;1762723;81;25468;-70
2022/04/19 04:39:06;;;;;;;7.87;5.90;;;;;;;;;;1762724;81;27179;-70
2022/04/19 04:41:32;;;;;;;8.75;6.47;;;;;;;;;;1762603;81;32975;-69
2022/04/19 04:43:58;;;;;;;6.75;5.85;;;;;;;;;;1762725;80;29619;-70
2022/04/19 04:51:53;;;;;;;6.87;5.65;;;;;;;;;;1762720;81;27492;-69
2022/04/19 04:54:19;;;;;;;6.83;5.78;;;;;;;;;;1762588;81;33029;-69
2022/04/19 04:56:45;;;;;;;7.22;5.95;;;;;;;;;;1762710;81;29708;-69
2022/04/19 04:59:10;;;;;;;9.58;6.78;;;;;;;;;;1762675;81;34648;-69
2022/04/19 05:01:36;;;;;;;7.28;5.67;;;;;;;;;;1762714;80;32706;-69
2022/04/19 05:04:02;;;;;;;8.50;6.35;;;;;;;;;;1762693;81;27451;-69
2022/04/19 05:06:28;;;;;;;8.23;6.78;;;;;;;;;;1762647;81;25672;-69
2022/04/19 05:08:54;;;;;;;8.05;6.30;;;;;;;;;;1762664;81;25565;-70
2022/04/19 05:11:20;;;;;;;9.08;7.15;;;;;;;;;;1762664;80;34665;-70
2022/04/19 05:13:46;;;;;;;10.48;7.28;;;;;;;;;;1762737;80;32260;-70
2022/04/19 05:16:12;;;;;;;9.75;8.18;;;;;;;;;;1762731;80;27558;-69
2022/04/19 05:18:38;;;;;;;15.80;10.75;;;;;;;;;;1762689;81;25678;-72
2022/04/19 05:21:05;;;;;;;9.23;7.85;;;;;;;;;;1762954;80;29666;-68
2022/04/19 05:23:31;;;;;;;10.63;8.33;;;;;;;;;;1762830;81;25715;-70
2022/04/19 05:25:57;;;;;;;8.93;8.03;;;;;;;;;;1762902;81;25532;-70
2022/04/19 05:28:25;;;;;;;10.25;7.42;;;;;;;;;;1762853;81;27343;-69
2022/04/19 05:30:51;;;;;;;9.63;7.62;;;;;;;;;;1763071;81;25406;-70
2022/04/19 05:33:17;;;;;;;9.45;7.22;;;;;;;;;;1763392;81;25482;-70
2022/04/19 05:35:43;;;;;;;8.43;6.85;;;;;;;;;;1765315;81;25686;-69
2022/04/19 05:38:09;;;;;;;7.15;6.45;;;;;;;;;;1765437;81;25391;-69
2022/04/19 05:40:35;;;;;;;6.67;6.00;;;;;;;;;;1765342;81;28124;-69
2022/04/19 05:43:01;;;;;;;8.20;6.47;;;;;;;;;;1765267;81;33017;-69
2022/04/19 05:45:28;;;;;;;7.40;6.30;;;;;;;;;;1765406;81;25660;-70
2022/04/19 05:47:53;;;;;;;7.03;5.80;;;;;;;;;;1765361;81;25617;-70
2022/04/19 05:50:19;;;;;;;7.33;5.97;;;;;;;;;;1765164;81;32167;-70
2022/04/19 05:52:48;;;;;;;6.40;5.80;;;;;;;;;;1765115;81;27905;-71
2022/04/19 05:55:14;;;;;;;6.67;6.08;;;;;;;;;;1765390;81;25555;-70
2022/04/19 05:57:40;;;;;;;6.90;6.15;;;;;;;;;;1765121;81;29978;-70
2022/04/19 06:00:08;;;;;;;9.60;7.62;;;;;;;;;;1765105;81;26237;-71
2022/04/19 06:05:18;;;;;;;8.00;7.00;;;;;;;;;;1765108;81;28192;-70
2022/04/19 06:07:48;;;;;;;7.75;5.95;;;;;;;;;;1765027;81;25401;-71
2022/04/19 06:10:15;;;;;;;7.72;6.45;;;;;;;;;;1765116;81;25488;-71
2022/04/19 06:12:42;;;;;;;7.10;6.40;;;;;;;;;;1765073;81;25655;-71
2022/04/19 06:15:10;;;;;;;6.75;6.05;;;;;;;;;;1765127;81;25396;-71
2022/04/19 06:17:38;;;;;;;10.23;6.42;;;;;;;;;;1765092;81;27388;-71
2022/04/19 06:20:07;;;;;;;7.28;6.17;;;;;;;;;;1765020;81;25688;-71
2022/04/19 06:22:33;;;;;;;8.25;6.72;;;;;;;;;;1765221;81;25615;-70
2022/04/19 06:24:59;;;;;;;7.50;6.17;;;;;;;;;;1764674;81;26377;-71
2022/04/19 06:27:25;;;;;;;7.62;6.22;;;;;;;;;;1765229;81;25483;-71
2022/04/19 06:29:52;;;;;;;8.40;6.78;;;;;;;;;;1765346;81;27414;-70
2022/04/19 06:32:19;;;;;;;7.45;6.40;;;;;;;;;;1765291;81;25619;-71
2022/04/19 06:34:45;;;;;;;7.40;6.50;;;;;;;;;;1765034;81;25532;-72
2022/04/19 06:37:11;;;;;;;8.03;6.78;;;;;;;;;;1765317;80;25854;-72
2022/04/19 06:39:37;;;;;;;7.67;6.42;;;;;;;;;;1765340;80;32248;-71
2022/04/19 06:42:04;;;;;;;9.03;7.30;;;;;;;;;;1765201;80;27370;-70
2022/04/19 06:44:30;;;;;;;11.00;8.48;;;;;;;;;;1765081;81;25621;-72
2022/04/19 06:46:56;;;;;;;7.45;5.97;;;;;;;;;;1765382;80;29639;-69
2022/04/19 06:49:25;;;;;;;7.15;5.90;;;;;;;;;;1765430;81;26315;-75
2022/04/19 06:51:51;;;;;;;7.28;5.92;;;;;;;;;;1765558;81;25563;-72
2022/04/19 06:54:17;;;;;;;6.92;5.47;;;;;;;;;;1769659;81;27433;-72
2022/04/19 06:56:47;;;;;;;5.05;4.40;;;;;;;;;;1765191;81;25642;-71
2022/04/19 06:59:13;;;;;;;5.08;4.58;;;;;;;;;;1765344;81;25624;-71
2022/04/19 07:01:40;;;;;;;5.20;4.65;;;;;;;;;;1765221;81;25909;-70
2022/04/19 07:04:11;;;;;;;5.17;4.53;;;;;;;;;;1765285;81;25634;-71
2022/04/19 07:06:37;;;;;;;5.92;4.58;;;;;;;;;;1765209;81;28093;-72
2022/04/19 07:09:03;;;;;;;5.67;4.78;;;;;;;;;;1765016;81;25557;-71
2022/04/19 07:11:30;;;;;;;4.92;4.40;;;;;;;;;;1769116;81;25531;-71
2022/04/19 07:13:58;;;;;;;4.90;4.40;;;;;;;;;;1769290;80;25630;-71
2022/04/19 07:16:24;;;;;;;5.80;4.62;;;;;;;;;;1765158;81;25388;-71
2022/04/19 07:18:53;;;;;;;5.33;4.83;;;;;;;;;;1765083;81;27526;-72
2022/04/19 07:26:51;;;;;;;8.30;6.42;;;;;;;;;;1765623;81;25656;-71
2022/04/19 07:29:20;;;;;;;16.02;10.38;;;;;;;;;;1765485;81;25466;-72
2022/04/19 07:31:48;;;;;;;5.35;4.85;;;;;;;;;;1765544;81;28320;-71
2022/04/19 07:34:16;;;;;;;5.58;4.87;;;;;;;;;;1747892;81;25722;-72
2022/04/19 07:36:43;;;;;;;6.70;4.97;;;;;;;;;;1709073;84;25558;-72
2022/04/19 07:39:10;;;;;;;4.97;4.47;;;;;;;;;;1709058;83;25649;-71
2022/04/19 07:41:39;;;;;;;4.55;4.15;;;;;;;;;;1709174;84;25562;-72
2022/04/19 07:44:10;;;;;;;4.87;4.08;;;;;;;;;;1709369;84;29619;-71
2022/04/19 07:46:37;;;;;;;4.92;4.42;;;;;;;;;;1709102;83;25507;-70
2022/04/19 07:49:03;;;;;;;5.65;5.05;;;;;;;;;;1709248;83;25409;-71
2022/04/19 07:51:30;;;;;;;6.85;5.35;;;;;;;;;;1709136;83;25668;-72
2022/04/19 07:53:56;;;;;;;7.28;5.17;;;;;;;;;;1709690;83;25510;-72
2022/04/19 07:56:22;;;;;;;5.55;4.83;;;;;;;;;;1709487;83;28160;-71
2022/04/19 07:58:49;;;;;;;6.35;5.35;;;;;;;;;;1709192;84;25485;-72
2022/04/19 08:01:17;;;;;;;5.33;4.83;;;;;;;;;;1695666;84;25629;-71
2022/04/19 08:03:43;;;;;;;6.15;5.15;;;;;;;;;;1709110;83;25670;-71
2022/04/19 08:06:09;;;;;;;6.17;5.30;;;;;;;;;;1709171;84;25556;-72
2022/04/19 08:08:36;;;;;;;4.70;4.30;;;;;;;;;;1709281;83;28071;-73
2022/04/19 08:11:03;;;;;;;5.53;4.55;;;;;;;;;;1709134;84;25610;-72
2022/04/19 08:13:30;;;;;;;5.00;4.60;;;;;;;;;;1709188;84;25223;-72
2022/04/19 08:15:57;;;;;;;5.28;4.75;;;;;;;;;;1709230;83;25630;-73
2022/04/19 08:18:23;;;;;;;5.62;5.12;;;;;;;;;;1709208;84;25416;-73
2022/04/19 08:20:51;;;;;;;5.28;4.78;;;;;;;;;;1709174;83;27423;-71
2022/04/19 08:23:19;;;;;;;6.78;5.37;;;;;;;;;;1709213;83;25585;-71
2022/04/19 08:25:45;;;;;;;6.30;5.53;;;;;;;;;;1709391;84;25553;-71
2022/04/19 08:28:12;;;;;;;8.03;6.60;;;;;;;;;;1709026;83;25604;-71
2022/04/19 08:30:37;;;;;;;11.73;6.80;;;;;;;;;;1709267;83;32259;-73
2022/04/19 08:33:04;;;;;;;5.78;4.97;;;;;;;;;;1709179;83;28054;-71
2022/04/19 08:35:31;;;;;;;5.17;4.65;;;;;;;;;;1747539;81;25438;-71
2022/04/19 08:37:57;;;;;;;5.12;4.47;;;;;;;;;;1762885;81;29638;-72
2022/04/19 08:40:25;;;;;;;4.75;4.15;;;;;;;;;;1763134;81;35353;-73
2022/04/19 08:42:51;;;;;;;5.45;4.35;;;;;;;;;;1763270;80;25560;-72
2022/04/19 08:45:20;;;;;;;4.33;3.92;;;;;;;;;;1763062;81;27940;-69
2022/04/19 08:47:46;;;;;;;5.47;4.40;;;;;;;;;;1762860;81;25637;-69
2022/04/19 08:50:15;;;;;;;4.33;3.83;;;;;;;;;;1762747;81;25566;-70
2022/04/19 08:52:41;;;;;;;4.62;4.10;;;;;;;;;;1761168;81;25701;-69
2022/04/19 08:57:54;;;;;;;4.20;3.80;;;;;;;;;;1762508;81;27950;-69
2022/04/19 09:00:24;;;;;;;4.42;4.03;;;;;;;;;;1762194;81;26175;-68
2022/04/19 09:02:52;;;;;;;5.00;4.60;;;;;;;;;;1762476;81;25740;-67
2022/04/19 09:05:27;;;;;;;4.92;4.42;;;;;;;;;;1762362;81;26123;-69
2022/04/19 09:07:57;;;;;;;5.30;4.33;;;;;;;;;;1762486;81;25704;-71
2022/04/19 09:14:06;;;;;;;4.87;4.45;;;;;;;;;;1761703;81;25704;-69
2022/04/19 09:16:33;;;;;;;5.62;5.10;;;;;;;;;;1762339;81;25660;-70
2022/04/19 09:19:02;;;;;;;5.67;4.97;;;;;;;;;;1762457;81;25648;-71
2022/04/19 09:21:38;;;;;;;5.60;4.78;;;;;;;;;;1761961;81;25468;-70
2022/04/19 09:24:21;;;;;;;5.83;5.15;;;;;;;;;;1762107;81;27433;-69
2022/04/19 09:26:53;;;;;;;14.15;8.35;;;;;;;;;;1762510;81;25586;-69
2022/04/19 09:29:22;;;;;;;5.75;5.15;;;;;;;;;;1762068;80;25508;-69
2022/04/19 09:31:52;;;;;;;6.30;5.70;;;;;;;;;;1762678;80;26333;-69
2022/04/19 09:34:34;;;;;;;6.05;5.42;;;;;;;;;;1761056;81;25428;-69
2022/04/19 09:37:12;;;;;;;5.97;5.10;;;;;;;;;;1759115;81;28109;-69
2022/04/19 09:39:39;;;;;;;7.12;5.22;;;;;;;;;;1759223;81;25630;-69
2022/04/19 09:42:09;;;;;;;6.92;5.92;;;;;;;;;;1759663;81;25685;-69
2022/04/19 09:44:40;;;;;;;8.85;4.62;;;;;;;;;;1759421;81;25637;-67
2022/04/19 09:47:08;;;;;;;5.67;4.85;;;;;;;;;;1759650;81;25709;-69
2022/04/19 09:49:52;;;;;;;7.20;5.45;;;;;;;;;;1759647;81;26872;-69
2022/04/19 09:52:25;;;;;;;5.65;4.72;;;;;;;;;;1759585;81;25693;-69
2022/04/19 09:55:05;;;;;;;5.78;5.00;;;;;;;;;;1759591;80;25690;-69
2022/04/19 09:57:37;;;;;;;5.58;5.00;;;;;;;;;;1759405;81;25524;-69
2022/04/19 10:00:05;;;;;;;7.65;4.83;;;;;;;;;;1759288;81;25705;-69
2022/04/19 10:08:11;;;;;;;5.80;5.17;;;;;;;;;;1728964;83;25746;-70
2022/04/19 10:10:38;;;;;;;4.85;4.42;;;;;;;;;;1688604;83;26222;-70
2022/04/19 10:13:05;;;;;;;5.80;5.22;;;;;;;;;;1728755;83;25769;-68
2022/04/19 10:15:32;;;;;;;6.00;5.22;;;;;;;;;;1728961;83;27460;-69
2022/04/19 10:18:00;;;;;;;5.90;5.30;;;;;;;;;;1729047;83;25653;-70
2022/04/19 10:20:32;;;;;;;5.85;5.12;;;;;;;;;;1728856;83;25675;-70
2022/04/19 10:23:04;;;;;;;5.70;4.95;;;;;;;;;;1728988;83;26325;-70
2022/04/19 10:25:44;;;;;;;5.72;4.97;;;;;;;;;;1728933;83;25659;-69
2022/04/19 10:28:13;;;;;;;5.78;5.00;;;;;;;;;;1701402;83;28161;-73
2022/04/19 10:30:51;;;;;;;6.17;5.57;;;;;;;;;;1728528;83;25703;-71
2022/04/19 10:33:41;;;;;;;5.45;4.95;;;;;;;;;;1729051;82;25731;-70
2022/04/19 10:36:12;;;;;;;5.78;5.17;;;;;;;;;;1737564;82;26324;-70
2022/04/19 10:38:38;;;;;;;5.58;4.78;;;;;;;;;;1749065;80;25480;-70
2022/04/19 10:41:04;;;;;;;7.47;5.40;;;;;;;;;;1773022;80;27341;-70
2022/04/19 10:43:30;;;;;;;6.33;5.28;;;;;;;;;;1772584;80;25702;-70
2022/04/19 10:46:20;;;;;;;5.58;4.97;;;;;;;;;;1773025;80;25755;-70
2022/04/19 10:49:04;;;;;;;;;;;;;;;;;;1742904;82;25609;-69
2022/04/19 10:51:30;;;;;;;6.90;5.53;;;;;;;;;;1740258;82;25643;-70
2022/04/19 10:53:56;;;;;;;5.55;4.95;;;;;;;;;;1740286;82;28222;-70
2022/04/19 10:56:22;;;;;;;10.70;7.22;;;;;;;;;;1740074;82;25538;-70
2022/04/19 10:58:49;;;;;;;8.90;6.80;;;;;;;;;;1715529;82;29781;-69
2022/04/19 11:01:29;;;;;;;5.83;4.78;;;;;;;;;;1740050;82;34876;-68
2022/04/19 11:03:55;;;;;;;5.42;4.83;;;;;;;;;;1739842;82;25683;-70
2022/04/19 11:06:40;;;;;;;6.25;4.92;;;;;;;;;;1715450;82;27330;-69
2022/04/19 11:09:11;;;;;;;6.20;4.75;;;;;;;;;;1704228;84;25643;-70
2022/04/19 11:11:49;;;;;;;5.17;4.67;;;;;;;;;;1703926;84;25488;-69
2022/04/19 11:14:25;;;;;;;5.00;4.47;;;;;;;;;;1704466;84;26599;-69
2022/04/19 11:16:56;;;;;;;5.28;4.70;;;;;;;;;;1698106;84;25925;-67
2022/04/19 11:19:23;;;;;;;5.75;4.90;;;;;;;;;;1724308;80;27437;-67
2022/04/19 11:21:56;;;;;;;5.22;4.72;;;;;;;;;;1772915;80;25631;-69
2022/04/19 11:24:59;;;;;;;5.72;4.62;;;;;;;;;;1773000;80;25757;-71
2022/04/19 11:27:55;;;;;;;5.45;4.30;;;;;;;;;;1772620;80;25703;-69
2022/04/19 11:30:25;;;;;;;6.10;5.40;;;;;;;;;;1772813;80;25634;-69
2022/04/19 11:32:56;;;;;;;5.17;4.42;;;;;;;;;;1772936;80;27337;-69
2022/04/19 11:35:23;;;;;;;5.15;4.65;;;;;;;;;;1770511;80;25282;-69
2022/04/19 11:37:49;;;;;;;4.80;4.40;;;;;;;;;;1764896;81;25596;-69
2022/04/19 11:48:47;;;;;;;5.83;4.05;;;;;;;;;;1764613;81;25411;-70
2022/04/19 11:51:14;;;;;;;6.53;5.00;;;;;;;;;;1765197;81;25642;-69
2022/04/19 11:53:41;;;;;;;4.70;4.30;;;;;;;;;;1765936;81;26227;-70
2022/04/19 11:56:09;;;;;;;5.60;3.85;;;;;;;;;;1765878;81;25646;-70
2022/04/19 11:58:40;;;;;;;4.75;4.28;;;;;;;;;;1766012;81;27321;-70
2022/04/19 12:01:09;;;;;;;4.33;3.92;;;;;;;;;;1766206;81;25406;-69
2022/04/19 12:03:37;;;;;;;4.85;4.35;;;;;;;;;;1765316;81;30080;-70
2022/04/19 12:06:07;;;;;;;6.03;4.85;;;;;;;;;;1764656;81;25790;-70
2022/04/19 12:08:37;;;;;;;5.67;4.92;;;;;;;;;;1764780;81;25548;-69
2022/04/19 12:11:09;;;;;;;4.15;3.75;;;;;;;;;;1764707;81;27340;-70
2022/04/19 12:13:36;;;;;;;4.40;4.00;;;;;;;;;;1764716;81;25666;-69
2022/04/19 12:16:09;;;;;;;5.55;5.05;;;;;;;;;;1764900;81;25425;-70
2022/04/19 12:18:38;;;;;;;5.70;4.08;;;;;;;;;;1764611;81;26219;-70
2022/04/19 12:21:06;;;;;;;4.33;3.92;;;;;;;;;;1765098;81;25704;-69
2022/04/19 12:23:34;;;;;;;4.17;3.77;;;;;;;;;;1764903;81;27335;-70
2022/04/19 12:26:06;;;;;;;4.10;3.70;;;;;;;;;;1764619;81;25451;-70
2022/04/19 12:28:46;;;;;;;4.72;3.75;;;;;;;;;;1764961;81;25611;-70
2022/04/19 12:31:35;;;;;;;4.45;4.05;;;;;;;;;;1764921;80;25711;-70
2022/04/19 12:34:03;;;;;;;4.03;3.70;;;;;;;;;;1764832;81;25497;-71
2022/04/19 12:36:40;;;;;;;5.28;3.72;;;;;;;;;;1764760;81;27493;-69
2022/04/19 12:39:07;;;;;;;3.92;3.47;;;;;;;;;;1764783;81;26326;-70
2022/04/19 12:41:39;;;;;;;3.72;3.42;;;;;;;;;;1764648;81;25539;-70
2022/04/19 12:44:10;;;;;;;17.57;11.48;;;;;;;;;;1745413;81;25708;-69
2022/04/19 12:46:48;;;;;;;18.05;10.93;;;;;;;;;;1711996;81;25605;-70
2022/04/19 12:49:22;;;;;;;8.30;5.08;;;;;;;;;;1685981;84;27407;-70
2022/04/19 12:52:05;;;;;;;4.40;4.00;;;;;;;;;;1708615;82;25726;-69
2022/04/19 12:54:37;;;;;;;4.15;3.85;;;;;;;;;;1708708;83;25680;-69
2022/04/19 12:59:52;;;;;;;5.20;3.87;;;;;;;;;;1715097;81;25385;-69
2022/04/19 13:02:19;;;;;;;3.52;3.20;;;;;;;;;;1722077;81;27300;-70
2022/04/19 13:04:46;;;;;;;4.35;3.92;;;;;;;;;;1715918;83;25601;-70
2022/04/19 13:12:43;;;;;;;3.42;3.12;;;;;;;;;;1673203;85;25685;-70
2022/04/19 13:15:10;;;;;;;3.95;3.55;;;;;;;;;;1710397;83;27540;-71
2022/04/19 13:17:39;;;;;;;3.77;3.47;;;;;;;;;;1715136;83;25852;-70
2022/04/19 13:20:07;;;;;;;3.70;3.17;;;;;;;;;;1709381;83;25659;-71
2022/04/19 13:22:33;;;;;;;3.72;3.42;;;;;;;;;;1715530;83;25852;-70
2022/04/19 13:25:00;;;;;;;3.70;3.40;;;;;;;;;;1715838;83;25404;-69
2022/04/19 13:27:27;;;;;;;3.25;3.00;;;;;;;;;;1711349;83;27511;-71
2022/04/19 13:29:53;;;;;;;3.55;3.22;;;;;;;;;;1712804;83;25582;-71
2022/04/19 13:32:20;;;;;;;3.30;3.00;;;;;;;;;;1715560;83;25607;-70
2022/04/19 13:34:47;;;;;;;3.75;3.40;;;;;;;;;;1716286;83;25616;-70
2022/04/19 13:38:23;;;;;;;9.85;6.97;;;;;;;;;;1731659;79;25772;-70
2022/04/19 13:39:43;;;;;;;12.85;8.65;;;;;;;;;;1732548;82;27890;-70
2022/04/19 13:42:09;;;;;;;3.55;3.10;;;;;;;;;;1735723;82;25626;-71
2022/04/19 13:44:35;;;;;;;3.45;3.15;;;;;;;;;;1744027;82;25624;-70
2022/04/19 13:47:02;;;;;;;3.12;2.90;;;;;;;;;;1725587;82;25769;-70
2022/04/19 13:49:28;;;;;;;3.40;3.10;;;;;;;;;;1730547;82;25673;-70
2022/04/19 13:51:58;;;;;;;3.30;3.00;;;;;;;;;;1737134;82;27879;-71
2022/04/19 13:54:22;;;;;;;3.80;3.50;;;;;;;;;;1736768;82;25672;-71
2022/04/19 13:56:52;;;;;;;3.15;2.90;;;;;;;;;;1747395;82;25442;-71
2022/04/19 13:59:18;;;;;;;7.28;3.37;;;;;;;;;;1736984;82;25697;-70
2022/04/19 14:01:44;;;;;;;3.80;3.50;;;;;;;;;;1747142;82;25806;-69
2022/04/19 14:04:11;;;;;;;3.83;3.37;;;;;;;;;;1737097;82;27440;-69
2022/04/19 14:06:39;;;;;;;4.30;3.33;;;;;;;;;;1736917;82;25827;-70
2022/04/19 14:09:07;;;;;;;3.58;3.05;;;;;;;;;;1747109;82;25647;-70
2022/04/19 14:11:36;;;;;;;4.40;3.37;;;;;;;;;;1747223;82;25611;-70
2022/04/19 14:14:04;;;;;;;5.70;4.30;;;;;;;;;;1737200;82;25684;-70
2022/04/19 14:16:31;;;;;;;4.60;4.10;;;;;;;;;;1747020;82;27376;-70
2022/04/19 14:18:57;;;;;;;4.10;3.70;;;;;;;;;;1737031;82;25695;-70
2022/04/19 14:21:24;;;;;;;4.20;3.80;;;;;;;;;;1736980;82;25474;-70
2022/04/19 14:23:50;;;;;;;4.37;3.80;;;;;;;;;;1736915;82;25618;-71
2022/04/19 14:26:16;;;;;;;5.03;3.83;;;;;;;;;;1736970;82;26234;-69
2022/04/19 14:34:13;;;;;;;7.70;5.42;;;;;;;;;;1743183;81;25652;-69
2022/04/19 14:36:40;;;;;;;3.95;3.55;;;;;;;;;;1743235;82;25627;-69
2022/04/19 14:39:06;;;;;;;4.65;3.58;;;;;;;;;;1736499;82;25673;-69
2022/04/19 14:41:33;;;;;;;4.97;3.47;;;;;;;;;;1736874;82;27281;-71
2022/04/19 14:43:59;;;;;;;4.05;3.58;;;;;;;;;;1701229;84;25378;-70
2022/04/19 14:46:25;;;;;;;4.83;3.95;;;;;;;;;;1736606;82;26345;-71
2022/04/19 14:48:51;;;;;;;3.80;3.33;;;;;;;;;;1701323;84;25729;-70
2022/04/19 14:54:03;;;;;;;4.08;3.42;;;;;;;;;;1736669;82;27467;-71
2022/04/19 14:56:29;;;;;;;4.15;3.75;;;;;;;;;;1731372;81;25453;-71
2022/04/19 14:58:55;;;;;;;5.05;3.47;;;;;;;;;;1707357;82;30168;-71
2022/04/19 15:01:21;;;;;;;5.05;3.42;;;;;;;;;;1671346;85;25614;-71
2022/04/19 15:03:47;;;;;;;4.90;4.40;;;;;;;;;;1709810;82;25600;-71
2022/04/19 15:06:13;;;;;;;6.87;5.40;;;;;;;;;;1735057;80;27024;-70
2022/04/19 15:08:39;;;;;;;4.53;3.77;;;;;;;;;;1736384;82;25575;-71
2022/04/19 15:11:06;;;;;;;7.05;4.20;;;;;;;;;;1721087;82;25681;-71
2022/04/19 15:13:32;;;;;;;6.55;4.90;;;;;;;;;;1717464;82;25695;-71
2022/04/19 15:15:58;;;;;;;3.85;3.33;;;;;;;;;;1695637;84;25625;-72
2022/04/19 15:18:24;;;;;;;4.78;3.60;;;;;;;;;;1717800;82;27380;-71
2022/04/19 15:20:51;;;;;;;4.17;3.77;;;;;;;;;;1685589;84;25747;-71
2022/04/19 15:23:17;;;;;;;6.37;3.60;;;;;;;;;;1728113;82;25625;-71
2022/04/19 15:25:43;;;;;;;4.58;3.40;;;;;;;;;;1677828;84;25758;-73
2022/04/19 15:28:10;;;;;;;3.77;3.40;;;;;;;;;;1736317;82;25501;-70
2022/04/19 15:30:36;;;;;;;3.65;3.30;;;;;;;;;;1735497;82;27525;-71
2022/04/19 15:33:02;;;;;;;4.95;3.87;;;;;;;;;;1683448;84;25430;-69
2022/04/19 15:35:28;;;;;;;5.05;4.40;;;;;;;;;;1731062;82;25403;-71
2022/04/19 15:37:55;;;;;;;4.15;3.75;;;;;;;;;;1714455;83;25859;-70
2022/04/19 15:40:21;;;;;;;3.98;3.47;;;;;;;;;;1678850;85;25550;-71
2022/04/19 15:42:47;;;;;;;4.50;3.60;;;;;;;;;;1734346;82;27369;-70
2022/04/19 15:45:14;;;;;;;3.77;3.35;;;;;;;;;;1738821;81;25802;-71
2022/04/19 15:47:40;;;;;;;5.60;4.03;;;;;;;;;;1708141;83;25782;-71